sensor_id;sensor_type;location;lat;lon;timestamp;P1;durP1;ratioP1;P2;durP2;ratioP2
79122;SDS011;68526;44.600;26.032;2023-04-05T00:00:11;7.15;;;5.95;;
79122;SDS011;68526;44.600;26.032;2023-04-05T00:00:27;6.82;;;5.90;;
79122;SDS011;68526;44.600;26.032;2023-04-05T00:00:43;7.07;;;6.18;;
79122;SDS011;68526;44.600;26.032;2023-04-05T00:00:59;6.93;;;6.15;;
79122;SDS011;68526;44.600;26.032;2023-04-05T00:01:16;6.88;;;5.88;;
79122;SDS011;68526;44.600;26.032;2023-04-05T00:01:34;7.03;;;5.88;;
79122;SDS011;68526;44.600;26.032;2023-04-05T00:01:51;7.10;;;5.63;;
79122;SDS011;68526;44.600;26.032;2023-04-05T00:02:07;7.05;;;5.72;;
79122;SDS011;68526;44.600;26.032;2023-04-05T00:02:25;6.53;;;5.80;;
79122;SDS011;68526;44.600;26.032;2023-04-05T00:02:44;6.70;;;5.72;;
79122;SDS011;68526;44.600;26.032;2023-04-05T00:03:00;7.07;;;5.60;;
79122;SDS011;68526;44.600;26.032;2023-04-05T00:03:16;6.47;;;5.40;;
79122;SDS011;68526;44.600;26.032;2023-04-05T00:03:32;5.90;;;5.30;;
79122;SDS011;68526;44.600;26.032;2023-04-05T00:03:48;6.35;;;5.35;;
79122;SDS011;68526;44.600;26.032;2023-04-05T00:04:06;6.72;;;5.53;;
79122;SDS011;68526;44.600;26.032;2023-04-05T00:04:23;6.28;;;5.40;;
79122;SDS011;68526;44.600;26.032;2023-04-05T00:04:38;6.00;;;5.20;;
79122;SDS011;68526;44.600;26.032;2023-04-05T00:05:04;6.32;;;5.40;;
79122;SDS011;68526;44.600;26.032;2023-04-05T00:05:21;6.85;;;5.32;;
79122;SDS011;68526;44.600;26.032;2023-04-05T00:05:43;7.00;;;5.70;;
79122;SDS011;68526;44.600;26.032;2023-04-05T00:06:00;6.60;;;5.82;;
79122;SDS011;68526;44.600;26.032;2023-04-05T00:06:19;6.68;;;5.72;;
79122;SDS011;68526;44.600;26.032;2023-04-05T00:06:36;6.72;;;5.65;;
79122;SDS011;68526;44.600;26.032;2023-04-05T00:06:54;7.28;;;5.55;;
79122;SDS011;68526;44.600;26.032;2023-04-05T00:07:11;6.90;;;5.43;;
79122;SDS011;68526;44.600;26.032;2023-04-05T00:07:27;6.78;;;5.47;;
79122;SDS011;68526;44.600;26.032;2023-04-05T00:07:43;6.25;;;5.40;;
79122;SDS011;68526;44.600;26.032;2023-04-05T00:08:02;6.22;;;5.50;;
79122;SDS011;68526;44.600;26.032;2023-04-05T00:08:22;6.30;;;5.40;;
79122;SDS011;68526;44.600;26.032;2023-04-05T00:08:40;6.22;;;5.32;;
79122;SDS011;68526;44.600;26.032;2023-04-05T00:08:58;6.28;;;5.35;;
79122;SDS011;68526;44.600;26.032;2023-04-05T00:09:16;6.55;;;5.50;;
79122;SDS011;68526;44.600;26.032;2023-04-05T00:09:33;6.95;;;5.65;;
79122;SDS011;68526;44.600;26.032;2023-04-05T00:09:50;7.18;;;5.50;;
79122;SDS011;68526;44.600;26.032;2023-04-05T00:10:07;7.35;;;5.68;;
79122;SDS011;68526;44.600;26.032;2023-04-05T00:10:23;6.60;;;5.45;;
79122;SDS011;68526;44.600;26.032;2023-04-05T00:10:39;6.22;;;5.35;;
79122;SDS011;68526;44.600;26.032;2023-04-05T00:10:55;6.37;;;5.40;;
79122;SDS011;68526;44.600;26.032;2023-04-05T00:11:11;6.78;;;5.53;;
79122;SDS011;68526;44.600;26.032;2023-04-05T00:11:28;6.10;;;5.40;;
79122;SDS011;68526;44.600;26.032;2023-04-05T00:11:44;5.88;;;5.28;;
79122;SDS011;68526;44.600;26.032;2023-04-05T00:12:01;5.78;;;5.18;;
79122;SDS011;68526;44.600;26.032;2023-04-05T00:12:17;5.82;;;5.22;;
79122;SDS011;68526;44.600;26.032;2023-04-05T00:12:33;6.00;;;5.40;;
79122;SDS011;68526;44.600;26.032;2023-04-05T00:12:49;6.50;;;5.30;;
79122;SDS011;68526;44.600;26.032;2023-04-05T00:13:05;6.83;;;5.30;;
79122;SDS011;68526;44.600;26.032;2023-04-05T00:13:21;7.28;;;5.32;;
79122;SDS011;68526;44.600;26.032;2023-04-05T00:13:37;7.93;;;5.60;;
79122;SDS011;68526;44.600;26.032;2023-04-05T00:13:54;7.10;;;5.68;;
79122;SDS011;68526;44.600;26.032;2023-04-05T00:14:11;6.53;;;5.45;;
79122;SDS011;68526;44.600;26.032;2023-04-05T00:14:27;6.95;;;5.47;;
79122;SDS011;68526;44.600;26.032;2023-04-05T00:14:43;6.35;;;5.35;;
79122;SDS011;68526;44.600;26.032;2023-04-05T00:14:59;6.22;;;5.28;;
79122;SDS011;68526;44.600;26.032;2023-04-05T00:15:15;7.05;;;5.32;;
79122;SDS011;68526;44.600;26.032;2023-04-05T00:15:31;6.93;;;5.60;;
79122;SDS011;68526;44.600;26.032;2023-04-05T00:15:47;6.72;;;5.70;;
79122;SDS011;68526;44.600;26.032;2023-04-05T00:16:05;6.53;;;5.50;;
79122;SDS011;68526;44.600;26.032;2023-04-05T00:16:21;6.45;;;5.30;;
79122;SDS011;68526;44.600;26.032;2023-04-05T00:16:37;6.40;;;5.25;;
79122;SDS011;68526;44.600;26.032;2023-04-05T00:16:53;6.38;;;5.53;;
79122;SDS011;68526;44.600;26.032;2023-04-05T00:17:09;6.28;;;5.43;;
79122;SDS011;68526;44.600;26.032;2023-04-05T00:17:26;6.07;;;5.30;;
79122;SDS011;68526;44.600;26.032;2023-04-05T00:17:43;5.72;;;5.10;;
79122;SDS011;68526;44.600;26.032;2023-04-05T00:18:00;6.13;;;5.10;;
79122;SDS011;68526;44.600;26.032;2023-04-05T00:18:17;6.53;;;5.40;;
79122;SDS011;68526;44.600;26.032;2023-04-05T00:18:36;6.00;;;5.20;;
79122;SDS011;68526;44.600;26.032;2023-04-05T00:18:52;5.78;;;5.18;;
79122;SDS011;68526;44.600;26.032;2023-04-05T00:19:17;5.75;;;5.13;;
79122;SDS011;68526;44.600;26.032;2023-04-05T00:19:33;5.80;;;5.03;;
79122;SDS011;68526;44.600;26.032;2023-04-05T00:19:50;5.68;;;4.97;;
79122;SDS011;68526;44.600;26.032;2023-04-05T00:20:11;6.32;;;5.30;;
79122;SDS011;68526;44.600;26.032;2023-04-05T00:20:27;6.53;;;5.20;;
79122;SDS011;68526;44.600;26.032;2023-04-05T00:20:43;6.27;;;4.90;;
79122;SDS011;68526;44.600;26.032;2023-04-05T00:20:59;6.35;;;5.03;;
79122;SDS011;68526;44.600;26.032;2023-04-05T00:21:16;5.70;;;4.68;;
79122;SDS011;68526;44.600;26.032;2023-04-05T00:21:35;5.40;;;4.78;;
79122;SDS011;68526;44.600;26.032;2023-04-05T00:21:53;5.22;;;4.72;;
79122;SDS011;68526;44.600;26.032;2023-04-05T00:22:09;4.90;;;4.40;;
79122;SDS011;68526;44.600;26.032;2023-04-05T00:22:25;5.35;;;4.50;;
79122;SDS011;68526;44.600;26.032;2023-04-05T00:22:41;5.50;;;4.70;;
79122;SDS011;68526;44.600;26.032;2023-04-05T00:22:58;6.00;;;4.80;;
79122;SDS011;68526;44.600;26.032;2023-04-05T00:23:14;6.18;;;4.63;;
79122;SDS011;68526;44.600;26.032;2023-04-05T00:23:31;6.03;;;4.45;;
79122;SDS011;68526;44.600;26.032;2023-04-05T00:23:52;5.30;;;4.38;;
79122;SDS011;68526;44.600;26.032;2023-04-05T00:24:09;5.47;;;4.53;;
79122;SDS011;68526;44.600;26.032;2023-04-05T00:24:29;5.22;;;4.57;;
79122;SDS011;68526;44.600;26.032;2023-04-05T00:24:47;4.80;;;4.25;;
79122;SDS011;68526;44.600;26.032;2023-04-05T00:25:03;5.23;;;4.43;;
79122;SDS011;68526;44.600;26.032;2023-04-05T00:25:20;5.45;;;4.40;;
79122;SDS011;68526;44.600;26.032;2023-04-05T00:25:36;4.97;;;4.32;;
79122;SDS011;68526;44.600;26.032;2023-04-05T00:25:52;4.80;;;4.30;;
79122;SDS011;68526;44.600;26.032;2023-04-05T00:26:08;4.95;;;4.25;;
79122;SDS011;68526;44.600;26.032;2023-04-05T00:26:25;5.15;;;4.25;;
79122;SDS011;68526;44.600;26.032;2023-04-05T00:26:41;5.25;;;4.20;;
79122;SDS011;68526;44.600;26.032;2023-04-05T00:26:58;5.57;;;4.15;;
79122;SDS011;68526;44.600;26.032;2023-04-05T00:27:15;5.28;;;3.83;;
79122;SDS011;68526;44.600;26.032;2023-04-05T00:27:31;4.90;;;3.90;;
79122;SDS011;68526;44.600;26.032;2023-04-05T00:27:48;4.78;;;3.88;;
79122;SDS011;68526;44.600;26.032;2023-04-05T00:28:03;4.72;;;3.83;;
79122;SDS011;68526;44.600;26.032;2023-04-05T00:28:19;4.40;;;3.70;;
79122;SDS011;68526;44.600;26.032;2023-04-05T00:28:35;4.70;;;3.90;;
79122;SDS011;68526;44.600;26.032;2023-04-05T00:28:51;4.80;;;3.80;;
79122;SDS011;68526;44.600;26.032;2023-04-05T00:29:10;4.70;;;3.72;;
79122;SDS011;68526;44.600;26.032;2023-04-05T00:29:26;4.53;;;3.90;;
79122;SDS011;68526;44.600;26.032;2023-04-05T00:29:41;4.50;;;3.92;;
79122;SDS011;68526;44.600;26.032;2023-04-05T00:29:57;4.80;;;3.80;;
79122;SDS011;68526;44.600;26.032;2023-04-05T00:30:13;4.90;;;3.72;;
79122;SDS011;68526;44.600;26.032;2023-04-05T00:30:34;4.83;;;3.90;;
79122;SDS011;68526;44.600;26.032;2023-04-05T00:30:50;4.90;;;3.88;;
79122;SDS011;68526;44.600;26.032;2023-04-05T00:31:06;5.15;;;3.95;;
79122;SDS011;68526;44.600;26.032;2023-04-05T00:31:22;5.07;;;3.85;;
79122;SDS011;68526;44.600;26.032;2023-04-05T00:31:38;4.90;;;3.92;;
79122;SDS011;68526;44.600;26.032;2023-04-05T00:31:54;4.88;;;3.83;;
79122;SDS011;68526;44.600;26.032;2023-04-05T00:32:11;4.40;;;3.60;;
79122;SDS011;68526;44.600;26.032;2023-04-05T00:32:27;4.40;;;3.73;;
79122;SDS011;68526;44.600;26.032;2023-04-05T00:32:43;4.22;;;3.63;;
79122;SDS011;68526;44.600;26.032;2023-04-05T00:32:59;4.53;;;3.72;;
79122;SDS011;68526;44.600;26.032;2023-04-05T00:33:15;5.10;;;3.75;;
79122;SDS011;68526;44.600;26.032;2023-04-05T00:33:31;4.82;;;3.70;;
79122;SDS011;68526;44.600;26.032;2023-04-05T00:33:47;4.32;;;3.55;;
79122;SDS011;68526;44.600;26.032;2023-04-05T00:34:03;4.30;;;3.57;;
79122;SDS011;68526;44.600;26.032;2023-04-05T00:34:23;4.20;;;3.58;;
79122;SDS011;68526;44.600;26.032;2023-04-05T00:34:39;4.00;;;3.28;;
79122;SDS011;68526;44.600;26.032;2023-04-05T00:34:55;4.33;;;3.30;;
79122;SDS011;68526;44.600;26.032;2023-04-05T00:35:11;4.53;;;3.33;;
79122;SDS011;68526;44.600;26.032;2023-04-05T00:35:27;4.80;;;3.40;;
79122;SDS011;68526;44.600;26.032;2023-04-05T00:35:43;4.70;;;3.58;;
79122;SDS011;68526;44.600;26.032;2023-04-05T00:36:07;4.60;;;3.72;;
79122;SDS011;68526;44.600;26.032;2023-04-05T00:36:24;3.95;;;3.25;;
79122;SDS011;68526;44.600;26.032;2023-04-05T00:36:41;3.95;;;3.15;;
79122;SDS011;68526;44.600;26.032;2023-04-05T00:36:57;4.07;;;3.40;;
79122;SDS011;68526;44.600;26.032;2023-04-05T00:37:13;4.38;;;3.60;;
79122;SDS011;68526;44.600;26.032;2023-04-05T00:37:29;4.50;;;3.50;;
79122;SDS011;68526;44.600;26.032;2023-04-05T00:37:45;4.10;;;3.28;;
79122;SDS011;68526;44.600;26.032;2023-04-05T00:38:01;4.37;;;3.40;;
79122;SDS011;68526;44.600;26.032;2023-04-05T00:38:18;4.68;;;3.30;;
79122;SDS011;68526;44.600;26.032;2023-04-05T00:38:34;4.43;;;3.20;;
79122;SDS011;68526;44.600;26.032;2023-04-05T00:38:50;4.80;;;3.40;;
79122;SDS011;68526;44.600;26.032;2023-04-05T00:39:05;4.43;;;3.40;;
79122;SDS011;68526;44.600;26.032;2023-04-05T00:39:22;4.05;;;3.30;;
79122;SDS011;68526;44.600;26.032;2023-04-05T00:39:38;4.05;;;3.33;;
79122;SDS011;68526;44.600;26.032;2023-04-05T00:39:54;4.15;;;3.25;;
79122;SDS011;68526;44.600;26.032;2023-04-05T00:40:11;4.30;;;3.05;;
79122;SDS011;68526;44.600;26.032;2023-04-05T00:40:27;4.00;;;3.05;;
79122;SDS011;68526;44.600;26.032;2023-04-05T00:40:43;4.25;;;3.20;;
79122;SDS011;68526;44.600;26.032;2023-04-05T00:41:00;4.60;;;3.30;;
79122;SDS011;68526;44.600;26.032;2023-04-05T00:41:16;4.05;;;3.30;;
79122;SDS011;68526;44.600;26.032;2023-04-05T00:41:32;3.80;;;3.13;;
79122;SDS011;68526;44.600;26.032;2023-04-05T00:41:47;4.10;;;3.10;;
79122;SDS011;68526;44.600;26.032;2023-04-05T00:42:04;4.22;;;3.33;;
79122;SDS011;68526;44.600;26.032;2023-04-05T00:42:20;4.03;;;3.38;;
79122;SDS011;68526;44.600;26.032;2023-04-05T00:42:36;3.92;;;3.20;;
79122;SDS011;68526;44.600;26.032;2023-04-05T00:42:52;3.80;;;3.10;;
79122;SDS011;68526;44.600;26.032;2023-04-05T00:43:08;4.15;;;3.20;;
79122;SDS011;68526;44.600;26.032;2023-04-05T00:43:23;4.73;;;3.40;;
79122;SDS011;68526;44.600;26.032;2023-04-05T00:43:39;4.50;;;3.33;;
79122;SDS011;68526;44.600;26.032;2023-04-05T00:43:57;3.80;;;3.10;;
79122;SDS011;68526;44.600;26.032;2023-04-05T00:44:15;3.85;;;3.20;;
79122;SDS011;68526;44.600;26.032;2023-04-05T00:44:31;3.90;;;3.20;;
79122;SDS011;68526;44.600;26.032;2023-04-05T00:44:48;3.83;;;3.08;;
79122;SDS011;68526;44.600;26.032;2023-04-05T00:45:05;3.90;;;3.08;;
79122;SDS011;68526;44.600;26.032;2023-04-05T00:45:22;4.10;;;3.25;;
79122;SDS011;68526;44.600;26.032;2023-04-05T00:45:38;4.10;;;3.33;;
79122;SDS011;68526;44.600;26.032;2023-04-05T00:45:54;4.00;;;3.27;;
79122;SDS011;68526;44.600;26.032;2023-04-05T00:46:10;4.00;;;3.10;;
79122;SDS011;68526;44.600;26.032;2023-04-05T00:46:26;4.20;;;3.10;;
79122;SDS011;68526;44.600;26.032;2023-04-05T00:46:42;4.20;;;3.10;;
79122;SDS011;68526;44.600;26.032;2023-04-05T00:47:00;4.25;;;3.45;;
79122;SDS011;68526;44.600;26.032;2023-04-05T00:47:16;4.82;;;3.47;;
79122;SDS011;68526;44.600;26.032;2023-04-05T00:47:32;3.92;;;2.80;;
79122;SDS011;68526;44.600;26.032;2023-04-05T00:47:47;3.73;;;3.00;;
79122;SDS011;68526;44.600;26.032;2023-04-05T00:48:04;4.10;;;3.17;;
79122;SDS011;68526;44.600;26.032;2023-04-05T00:48:20;4.18;;;3.10;;
79122;SDS011;68526;44.600;26.032;2023-04-05T00:48:37;3.95;;;3.13;;
79122;SDS011;68526;44.600;26.032;2023-04-05T00:48:55;4.40;;;3.38;;
79122;SDS011;68526;44.600;26.032;2023-04-05T00:49:10;4.85;;;3.20;;
79122;SDS011;68526;44.600;26.032;2023-04-05T00:49:27;4.38;;;3.00;;
79122;SDS011;68526;44.600;26.032;2023-04-05T00:49:43;4.40;;;3.20;;
79122;SDS011;68526;44.600;26.032;2023-04-05T00:50:00;4.45;;;3.40;;
79122;SDS011;68526;44.600;26.032;2023-04-05T00:50:16;4.43;;;3.40;;
79122;SDS011;68526;44.600;26.032;2023-04-05T00:50:32;3.83;;;3.08;;
79122;SDS011;68526;44.600;26.032;2023-04-05T00:50:50;3.60;;;3.00;;
79122;SDS011;68526;44.600;26.032;2023-04-05T00:51:06;4.38;;;3.03;;
79122;SDS011;68526;44.600;26.032;2023-04-05T00:51:25;4.40;;;2.95;;
79122;SDS011;68526;44.600;26.032;2023-04-05T00:51:41;4.20;;;3.00;;
79122;SDS011;68526;44.600;26.032;2023-04-05T00:51:59;3.72;;;2.97;;
79122;SDS011;68526;44.600;26.032;2023-04-05T00:52:16;3.65;;;2.78;;
79122;SDS011;68526;44.600;26.032;2023-04-05T00:52:33;4.10;;;3.00;;
79122;SDS011;68526;44.600;26.032;2023-04-05T00:52:49;3.97;;;3.10;;
79122;SDS011;68526;44.600;26.032;2023-04-05T00:53:05;3.72;;;3.13;;
79122;SDS011;68526;44.600;26.032;2023-04-05T00:53:21;4.00;;;3.10;;
79122;SDS011;68526;44.600;26.032;2023-04-05T00:53:37;4.10;;;3.20;;
79122;SDS011;68526;44.600;26.032;2023-04-05T00:53:54;4.03;;;3.30;;
79122;SDS011;68526;44.600;26.032;2023-04-05T00:54:12;3.90;;;3.10;;
79122;SDS011;68526;44.600;26.032;2023-04-05T00:54:28;4.22;;;3.03;;
79122;SDS011;68526;44.600;26.032;2023-04-05T00:54:44;4.18;;;3.17;;
79122;SDS011;68526;44.600;26.032;2023-04-05T00:55:00;3.97;;;3.13;;
79122;SDS011;68526;44.600;26.032;2023-04-05T00:55:16;4.30;;;3.28;;
79122;SDS011;68526;44.600;26.032;2023-04-05T00:55:34;4.20;;;3.10;;
79122;SDS011;68526;44.600;26.032;2023-04-05T00:55:50;3.78;;;2.90;;
79122;SDS011;68526;44.600;26.032;2023-04-05T00:56:07;3.80;;;3.10;;
79122;SDS011;68526;44.600;26.032;2023-04-05T00:56:24;4.20;;;3.30;;
79122;SDS011;68526;44.600;26.032;2023-04-05T00:56:40;4.13;;;3.20;;
79122;SDS011;68526;44.600;26.032;2023-04-05T00:56:57;4.05;;;3.22;;
79122;SDS011;68526;44.600;26.032;2023-04-05T00:57:13;3.97;;;3.30;;
79122;SDS011;68526;44.600;26.032;2023-04-05T00:57:30;3.90;;;3.17;;
79122;SDS011;68526;44.600;26.032;2023-04-05T00:57:48;4.10;;;3.20;;
79122;SDS011;68526;44.600;26.032;2023-04-05T00:58:04;3.90;;;3.17;;
79122;SDS011;68526;44.600;26.032;2023-04-05T00:58:20;3.97;;;3.20;;
79122;SDS011;68526;44.600;26.032;2023-04-05T00:58:37;3.83;;;3.20;;
79122;SDS011;68526;44.600;26.032;2023-04-05T00:58:56;4.53;;;3.10;;
79122;SDS011;68526;44.600;26.032;2023-04-05T00:59:12;4.47;;;3.13;;
79122;SDS011;68526;44.600;26.032;2023-04-05T00:59:29;4.68;;;3.20;;
79122;SDS011;68526;44.600;26.032;2023-04-05T00:59:45;4.78;;;3.35;;
79122;SDS011;68526;44.600;26.032;2023-04-05T01:00:01;4.20;;;3.28;;
79122;SDS011;68526;44.600;26.032;2023-04-05T01:00:21;3.90;;;3.20;;
79122;SDS011;68526;44.600;26.032;2023-04-05T01:00:37;3.92;;;3.22;;
79122;SDS011;68526;44.600;26.032;2023-04-05T01:00:56;4.13;;;3.25;;
79122;SDS011;68526;44.600;26.032;2023-04-05T01:01:18;4.00;;;3.20;;
79122;SDS011;68526;44.600;26.032;2023-04-05T01:01:36;4.10;;;3.33;;
79122;SDS011;68526;44.600;26.032;2023-04-05T01:02:00;4.25;;;3.28;;
79122;SDS011;68526;44.600;26.032;2023-04-05T01:02:22;4.28;;;3.13;;
79122;SDS011;68526;44.600;26.032;2023-04-05T01:02:47;4.20;;;3.40;;
79122;SDS011;68526;44.600;26.032;2023-04-05T01:03:06;3.90;;;3.13;;
79122;SDS011;68526;44.600;26.032;2023-04-05T01:03:24;4.00;;;3.10;;
79122;SDS011;68526;44.600;26.032;2023-04-05T01:03:42;4.25;;;3.30;;
79122;SDS011;68526;44.600;26.032;2023-04-05T01:04:01;4.15;;;3.10;;
79122;SDS011;68526;44.600;26.032;2023-04-05T01:04:18;4.32;;;3.03;;
79122;SDS011;68526;44.600;26.032;2023-04-05T01:04:35;4.20;;;3.13;;
79122;SDS011;68526;44.600;26.032;2023-04-05T01:04:54;3.88;;;3.10;;
79122;SDS011;68526;44.600;26.032;2023-04-05T01:05:18;4.00;;;3.05;;
79122;SDS011;68526;44.600;26.032;2023-04-05T01:05:46;4.00;;;3.25;;
79122;SDS011;68526;44.600;26.032;2023-04-05T01:06:11;4.28;;;3.20;;
79122;SDS011;68526;44.600;26.032;2023-04-05T01:06:46;4.32;;;3.30;;
79122;SDS011;68526;44.600;26.032;2023-04-05T01:07:16;4.13;;;3.22;;
79122;SDS011;68526;44.600;26.032;2023-04-05T01:07:42;4.03;;;3.13;;
79122;SDS011;68526;44.600;26.032;2023-04-05T01:08:06;4.15;;;3.28;;
79122;SDS011;68526;44.600;26.032;2023-04-05T01:08:28;4.38;;;3.38;;
79122;SDS011;68526;44.600;26.032;2023-04-05T01:08:54;4.47;;;3.50;;
79122;SDS011;68526;44.600;26.032;2023-04-05T01:09:26;4.20;;;3.20;;
79122;SDS011;68526;44.600;26.032;2023-04-05T01:09:52;4.43;;;3.60;;
79122;SDS011;68526;44.600;26.032;2023-04-05T01:10:12;4.27;;;3.40;;
79122;SDS011;68526;44.600;26.032;2023-04-05T01:10:34;4.40;;;3.40;;
79122;SDS011;68526;44.600;26.032;2023-04-05T01:10:53;4.32;;;3.50;;
79122;SDS011;68526;44.600;26.032;2023-04-05T01:11:11;4.60;;;3.50;;
79122;SDS011;68526;44.600;26.032;2023-04-05T01:11:29;4.65;;;3.47;;
79122;SDS011;68526;44.600;26.032;2023-04-05T01:11:47;5.03;;;3.60;;
79122;SDS011;68526;44.600;26.032;2023-04-05T01:12:05;4.85;;;3.40;;
79122;SDS011;68526;44.600;26.032;2023-04-05T01:12:24;4.13;;;3.25;;
79122;SDS011;68526;44.600;26.032;2023-04-05T01:12:42;4.05;;;3.10;;
79122;SDS011;68526;44.600;26.032;2023-04-05T01:12:59;4.10;;;3.20;;
79122;SDS011;68526;44.600;26.032;2023-04-05T01:13:15;4.60;;;3.25;;
79122;SDS011;68526;44.600;26.032;2023-04-05T01:13:31;4.47;;;3.25;;
79122;SDS011;68526;44.600;26.032;2023-04-05T01:13:48;4.25;;;3.63;;
79122;SDS011;68526;44.600;26.032;2023-04-05T01:14:04;4.47;;;3.50;;
79122;SDS011;68526;44.600;26.032;2023-04-05T01:14:20;5.13;;;3.55;;
79122;SDS011;68526;44.600;26.032;2023-04-05T01:14:44;5.40;;;3.53;;
79122;SDS011;68526;44.600;26.032;2023-04-05T01:15:01;4.50;;;3.50;;
79122;SDS011;68526;44.600;26.032;2023-04-05T01:15:19;4.50;;;3.63;;
79122;SDS011;68526;44.600;26.032;2023-04-05T01:15:35;4.50;;;3.58;;
79122;SDS011;68526;44.600;26.032;2023-04-05T01:15:50;4.35;;;3.20;;
79122;SDS011;68526;44.600;26.032;2023-04-05T01:16:06;4.25;;;3.15;;
79122;SDS011;68526;44.600;26.032;2023-04-05T01:16:22;4.23;;;3.37;;
79122;SDS011;68526;44.600;26.032;2023-04-05T01:16:38;4.90;;;3.60;;
79122;SDS011;68526;44.600;26.032;2023-04-05T01:16:54;4.82;;;3.55;;
79122;SDS011;68526;44.600;26.032;2023-04-05T01:17:12;4.60;;;3.50;;
79122;SDS011;68526;44.600;26.032;2023-04-05T01:17:28;4.05;;;3.28;;
79122;SDS011;68526;44.600;26.032;2023-04-05T01:17:50;4.05;;;3.35;;
79122;SDS011;68526;44.600;26.032;2023-04-05T01:18:08;3.97;;;3.30;;
79122;SDS011;68526;44.600;26.032;2023-04-05T01:18:26;3.92;;;3.30;;
79122;SDS011;68526;44.600;26.032;2023-04-05T01:18:45;3.97;;;3.30;;
79122;SDS011;68526;44.600;26.032;2023-04-05T01:19:01;3.80;;;3.15;;
79122;SDS011;68526;44.600;26.032;2023-04-05T01:19:18;4.10;;;3.40;;
79122;SDS011;68526;44.600;26.032;2023-04-05T01:19:33;4.00;;;3.28;;
79122;SDS011;68526;44.600;26.032;2023-04-05T01:19:56;4.18;;;3.40;;
79122;SDS011;68526;44.600;26.032;2023-04-05T01:20:13;4.00;;;3.20;;
79122;SDS011;68526;44.600;26.032;2023-04-05T01:20:30;4.20;;;3.20;;
79122;SDS011;68526;44.600;26.032;2023-04-05T01:20:53;4.07;;;3.20;;
79122;SDS011;68526;44.600;26.032;2023-04-05T01:21:22;4.55;;;3.65;;
79122;SDS011;68526;44.600;26.032;2023-04-05T01:22:26;4.07;;;3.50;;
79122;SDS011;68526;44.600;26.032;2023-04-05T01:23:52;4.15;;;3.33;;
79122;SDS011;68526;44.600;26.032;2023-04-05T01:24:18;4.60;;;3.63;;
79122;SDS011;68526;44.600;26.032;2023-04-05T01:24:59;3.90;;;3.35;;
79122;SDS011;68526;44.600;26.032;2023-04-05T01:27:01;4.28;;;3.35;;
79122;SDS011;68526;44.600;26.032;2023-04-05T01:27:21;4.13;;;3.30;;
79122;SDS011;68526;44.600;26.032;2023-04-05T01:27:55;4.15;;;3.28;;
79122;SDS011;68526;44.600;26.032;2023-04-05T01:28:34;4.65;;;3.28;;
79122;SDS011;68526;44.600;26.032;2023-04-05T01:29:50;3.92;;;3.30;;
79122;SDS011;68526;44.600;26.032;2023-04-05T01:30:12;4.38;;;3.30;;
79122;SDS011;68526;44.600;26.032;2023-04-05T01:30:34;4.30;;;3.30;;
79122;SDS011;68526;44.600;26.032;2023-04-05T01:30:53;4.25;;;3.33;;
79122;SDS011;68526;44.600;26.032;2023-04-05T01:31:19;4.40;;;3.40;;
79122;SDS011;68526;44.600;26.032;2023-04-05T01:31:41;4.50;;;3.65;;
79122;SDS011;68526;44.600;26.032;2023-04-05T01:32:02;4.20;;;3.25;;
79122;SDS011;68526;44.600;26.032;2023-04-05T01:32:29;4.20;;;3.42;;
79122;SDS011;68526;44.600;26.032;2023-04-05T01:32:58;4.70;;;3.60;;
79122;SDS011;68526;44.600;26.032;2023-04-05T01:33:24;4.70;;;3.60;;
79122;SDS011;68526;44.600;26.032;2023-04-05T01:33:49;4.10;;;3.47;;
79122;SDS011;68526;44.600;26.032;2023-04-05T01:34:12;3.88;;;3.20;;
79122;SDS011;68526;44.600;26.032;2023-04-05T01:34:36;4.00;;;3.30;;
79122;SDS011;68526;44.600;26.032;2023-04-05T01:35:00;4.22;;;3.53;;
79122;SDS011;68526;44.600;26.032;2023-04-05T01:35:27;4.55;;;3.70;;
79122;SDS011;68526;44.600;26.032;2023-04-05T01:35:49;4.40;;;3.30;;
79122;SDS011;68526;44.600;26.032;2023-04-05T01:36:07;3.92;;;3.20;;
79122;SDS011;68526;44.600;26.032;2023-04-05T01:36:33;4.38;;;3.47;;
79122;SDS011;68526;44.600;26.032;2023-04-05T01:36:55;4.65;;;3.50;;
79122;SDS011;68526;44.600;26.032;2023-04-05T01:37:17;4.38;;;3.42;;
79122;SDS011;68526;44.600;26.032;2023-04-05T01:37:35;4.22;;;3.50;;
79122;SDS011;68526;44.600;26.032;2023-04-05T01:37:54;4.20;;;3.40;;
79122;SDS011;68526;44.600;26.032;2023-04-05T01:38:15;4.22;;;3.45;;
79122;SDS011;68526;44.600;26.032;2023-04-05T01:38:33;4.30;;;3.50;;
79122;SDS011;68526;44.600;26.032;2023-04-05T01:38:55;4.55;;;3.50;;
79122;SDS011;68526;44.600;26.032;2023-04-05T01:39:14;4.68;;;3.80;;
79122;SDS011;68526;44.600;26.032;2023-04-05T01:39:31;5.13;;;3.88;;
79122;SDS011;68526;44.600;26.032;2023-04-05T01:39:50;4.95;;;3.58;;
79122;SDS011;68526;44.600;26.032;2023-04-05T01:40:07;4.78;;;3.67;;
79122;SDS011;68526;44.600;26.032;2023-04-05T01:40:25;4.45;;;3.75;;
79122;SDS011;68526;44.600;26.032;2023-04-05T01:40:41;4.43;;;3.70;;
79122;SDS011;68526;44.600;26.032;2023-04-05T01:40:57;4.57;;;3.60;;
79122;SDS011;68526;44.600;26.032;2023-04-05T01:41:13;4.72;;;3.70;;
79122;SDS011;68526;44.600;26.032;2023-04-05T01:41:29;4.25;;;3.53;;
79122;SDS011;68526;44.600;26.032;2023-04-05T01:41:45;4.20;;;3.55;;
79122;SDS011;68526;44.600;26.032;2023-04-05T01:42:03;4.80;;;3.95;;
79122;SDS011;68526;44.600;26.032;2023-04-05T01:42:21;4.70;;;3.60;;
79122;SDS011;68526;44.600;26.032;2023-04-05T01:42:39;5.00;;;3.60;;
79122;SDS011;68526;44.600;26.032;2023-04-05T01:42:59;4.90;;;3.70;;
79122;SDS011;68526;44.600;26.032;2023-04-05T01:43:16;5.13;;;3.65;;
79122;SDS011;68526;44.600;26.032;2023-04-05T01:43:32;5.07;;;3.70;;
79122;SDS011;68526;44.600;26.032;2023-04-05T01:43:48;4.60;;;3.70;;
79122;SDS011;68526;44.600;26.032;2023-04-05T01:44:05;4.95;;;3.60;;
79122;SDS011;68526;44.600;26.032;2023-04-05T01:44:21;5.37;;;3.63;;
79122;SDS011;68526;44.600;26.032;2023-04-05T01:44:36;4.82;;;3.70;;
79122;SDS011;68526;44.600;26.032;2023-04-05T01:44:55;4.72;;;3.60;;
79122;SDS011;68526;44.600;26.032;2023-04-05T01:45:11;4.50;;;3.60;;
79122;SDS011;68526;44.600;26.032;2023-04-05T01:45:27;5.07;;;3.65;;
79122;SDS011;68526;44.600;26.032;2023-04-05T01:45:45;5.30;;;3.67;;
79122;SDS011;68526;44.600;26.032;2023-04-05T01:46:01;4.97;;;3.70;;
79122;SDS011;68526;44.600;26.032;2023-04-05T01:46:17;4.55;;;3.80;;
79122;SDS011;68526;44.600;26.032;2023-04-05T01:46:33;4.70;;;3.73;;
79122;SDS011;68526;44.600;26.032;2023-04-05T01:46:49;4.82;;;3.75;;
79122;SDS011;68526;44.600;26.032;2023-04-05T01:47:05;4.60;;;3.67;;
79122;SDS011;68526;44.600;26.032;2023-04-05T01:47:22;5.50;;;3.60;;
79122;SDS011;68526;44.600;26.032;2023-04-05T01:47:38;5.20;;;3.72;;
79122;SDS011;68526;44.600;26.032;2023-04-05T01:47:54;4.50;;;3.80;;
79122;SDS011;68526;44.600;26.032;2023-04-05T01:48:10;4.30;;;3.72;;
79122;SDS011;68526;44.600;26.032;2023-04-05T01:48:26;4.22;;;3.65;;
79122;SDS011;68526;44.600;26.032;2023-04-05T01:48:43;4.47;;;3.90;;
79122;SDS011;68526;44.600;26.032;2023-04-05T01:48:59;5.13;;;4.00;;
79122;SDS011;68526;44.600;26.032;2023-04-05T01:49:15;5.05;;;3.83;;
79122;SDS011;68526;44.600;26.032;2023-04-05T01:49:31;5.22;;;3.67;;
79122;SDS011;68526;44.600;26.032;2023-04-05T01:49:46;5.50;;;3.53;;
79122;SDS011;68526;44.600;26.032;2023-04-05T01:50:04;5.10;;;3.47;;
79122;SDS011;68526;44.600;26.032;2023-04-05T01:50:20;5.72;;;3.67;;
79122;SDS011;68526;44.600;26.032;2023-04-05T01:50:36;5.60;;;3.97;;
79122;SDS011;68526;44.600;26.032;2023-04-05T01:50:52;4.80;;;3.90;;
79122;SDS011;68526;44.600;26.032;2023-04-05T01:51:09;4.68;;;3.55;;